createdAt,value
2019-05-05T00:02:20.901Z,13.48
2019-05-05T00:04:50.987Z,12.28
2019-05-05T00:07:21.238Z,9.73
2019-05-05T00:09:49.673Z,8.95
2019-05-05T00:12:19.902Z,7.95
2019-05-05T00:14:50.280Z,9.28
2019-05-05T00:17:20.342Z,7.85
2019-05-05T00:19:48.763Z,15.55
2019-05-05T00:22:17.286Z,10.88
2019-05-05T00:24:45.871Z,9.70
2019-05-05T00:27:15.070Z,8.98
2019-05-05T00:29:45.361Z,8.88
2019-05-05T00:32:15.259Z,12.63
2019-05-05T00:34:44.611Z,10.50
2019-05-05T00:37:15.227Z,9.35
2019-05-05T00:39:45.173Z,11.33
2019-05-05T00:42:15.411Z,9.83
2019-05-05T00:44:44.778Z,12.10
2019-05-05T00:47:21.023Z,9.33
2019-05-05T00:49:51.100Z,9.40
2019-05-05T00:52:19.518Z,11.85
2019-05-05T00:54:47.978Z,11.03
2019-05-05T00:57:16.446Z,11.43
2019-05-05T00:59:45.340Z,10.48
2019-05-05T01:02:15.643Z,12.18
2019-05-05T01:04:45.733Z,10.60
2019-05-05T01:07:14.351Z,12.05
2019-05-05T01:09:45.125Z,10.23
2019-05-05T01:12:15.062Z,7.80
2019-05-05T01:14:44.741Z,7.78
2019-05-05T01:17:14.735Z,8.45
2019-05-05T01:19:45.387Z,10.95
2019-05-05T01:22:14.383Z,11.70
2019-05-05T01:24:43.182Z,14.83
2019-05-05T01:27:12.194Z,9.15
2019-05-05T01:29:40.632Z,9.98
2019-05-05T01:32:10.935Z,10.45
2019-05-05T01:34:41.060Z,8.00
2019-05-05T01:37:11.107Z,9.45
2019-05-05T01:39:51.473Z,7.83
2019-05-05T01:42:20.057Z,7.70
2019-05-05T01:44:48.483Z,8.18
2019-05-05T01:47:16.981Z,11.00
2019-05-05T01:49:45.565Z,13.90
2019-05-05T01:52:14.874Z,9.68
2019-05-05T01:54:44.595Z,10.63
2019-05-05T01:57:14.831Z,9.38
2019-05-05T01:59:44.772Z,9.50
2019-05-05T02:02:14.676Z,10.08
2019-05-05T02:04:44.776Z,12.37
2019-05-05T02:07:14.545Z,7.53
2019-05-05T02:09:44.917Z,11.65
2019-05-05T02:12:15.227Z,8.35
2019-05-05T02:14:44.471Z,12.80
2019-05-05T02:17:14.395Z,9.28
2019-05-05T02:19:44.390Z,9.70
2019-05-05T02:22:14.667Z,12.58
2019-05-05T02:24:44.482Z,10.68
2019-05-05T02:27:14.576Z,7.87
2019-05-05T02:29:47.484Z,13.08
2019-05-05T02:32:17.850Z,10.95
2019-05-05T02:34:47.920Z,9.33
2019-05-05T02:37:16.354Z,11.20
2019-05-05T02:39:57.254Z,9.75
2019-05-05T02:42:17.025Z,10.95
2019-05-05T02:44:45.980Z,10.82
2019-05-05T02:47:18.004Z,9.63
2019-05-05T02:52:15.702Z,10.98
2019-05-05T02:54:45.161Z,13.55
2019-05-05T02:57:15.105Z,9.13
2019-05-05T02:59:45.901Z,14.15
2019-05-05T03:02:17.056Z,12.43
2019-05-05T03:04:46.555Z,11.00
2019-05-05T03:07:17.719Z,9.73
2019-05-05T03:09:48.549Z,11.12
2019-05-05T03:12:19.780Z,11.30
2019-05-05T03:14:50.155Z,12.10
2019-05-05T03:17:19.338Z,10.63
2019-05-05T03:19:48.902Z,14.93
2019-05-05T03:22:18.326Z,10.90
2019-05-05T03:24:46.775Z,12.40
2019-05-05T03:27:15.374Z,11.83
2019-05-05T03:29:44.348Z,10.80
2019-05-05T03:32:16.035Z,10.72
2019-05-05T03:34:44.590Z,9.83
2019-05-05T03:37:14.657Z,10.53
2019-05-05T03:39:45.297Z,16.80
2019-05-05T03:42:24.615Z,9.88
2019-05-05T03:44:55.305Z,11.50
2019-05-05T03:47:24.144Z,13.32
2019-05-05T03:49:53.559Z,10.23
2019-05-05T03:52:24.452Z,12.35
2019-05-05T03:54:54.246Z,11.93
2019-05-05T03:57:24.598Z,11.30
2019-05-05T03:59:54.767Z,10.45
2019-05-05T04:02:25.338Z,11.63
2019-05-05T04:04:55.403Z,12.47
2019-05-05T04:07:24.306Z,11.25
2019-05-05T04:09:54.244Z,11.85
2019-05-05T04:12:24.143Z,11.70
2019-05-05T04:14:54.573Z,12.23
2019-05-05T04:17:24.881Z,9.93
2019-05-05T04:19:54.952Z,10.78
2019-05-05T04:22:23.812Z,10.32
2019-05-05T04:24:54.135Z,9.25
2019-05-05T04:27:23.892Z,13.03
2019-05-05T04:29:54.325Z,10.88
2019-05-05T04:32:24.430Z,10.90
2019-05-05T04:34:54.324Z,10.93
2019-05-05T04:37:23.899Z,14.03
2019-05-05T04:39:53.728Z,11.88
2019-05-05T04:42:23.965Z,10.72
2019-05-05T04:44:53.800Z,8.28
2019-05-05T04:47:29.775Z,12.35
2019-05-05T04:50:05.718Z,8.68
2019-05-05T04:52:34.588Z,10.40
2019-05-05T04:55:03.937Z,9.05
2019-05-05T04:57:32.493Z,11.20
2019-05-05T05:00:00.998Z,8.23
2019-05-05T05:02:34.244Z,12.43
2019-05-05T05:05:10.524Z,8.88
2019-05-05T05:07:39.135Z,11.68
2019-05-05T05:10:08.105Z,9.53
2019-05-05T05:12:36.569Z,12.68
2019-05-05T05:15:06.132Z,9.88
2019-05-05T05:17:36.253Z,11.93
2019-05-05T05:20:06.941Z,9.88
2019-05-05T05:22:35.310Z,9.85
2019-05-05T05:25:04.582Z,7.47
2019-05-05T05:27:33.645Z,10.15
2019-05-05T05:30:04.544Z,9.75
2019-05-05T05:32:33.979Z,10.25
2019-05-05T05:35:03.900Z,8.85
2019-05-05T05:37:34.160Z,7.35
2019-05-05T05:40:07.036Z,11.85
2019-05-05T05:42:35.473Z,6.10
2019-05-05T05:45:14.591Z,9.50
2019-05-05T05:47:56.915Z,7.10
2019-05-05T05:50:29.403Z,10.15
2019-05-05T05:52:57.810Z,7.35
2019-05-05T05:55:26.400Z,9.73
2019-05-05T05:57:54.821Z,8.05
2019-05-05T06:00:23.813Z,7.22
2019-05-05T06:02:54.496Z,12.68
2019-05-05T06:05:23.838Z,8.18
2019-05-05T06:07:54.469Z,6.37
2019-05-05T06:10:26.652Z,7.97
2019-05-05T06:12:54.687Z,5.60
2019-05-05T06:15:24.471Z,7.92
2019-05-05T06:17:53.944Z,9.75
2019-05-05T06:20:23.890Z,5.70
2019-05-05T06:22:53.605Z,10.05
2019-05-05T06:25:26.220Z,8.65
2019-05-05T06:27:54.018Z,3.77
2019-05-05T06:30:24.388Z,5.42
2019-05-05T06:32:54.363Z,6.90
2019-05-05T06:35:24.432Z,4.12
2019-05-05T06:37:55.622Z,7.95
2019-05-05T06:40:35.411Z,8.20
2019-05-05T06:43:14.403Z,4.83
2019-05-05T06:45:49.911Z,5.10
2019-05-05T06:48:18.329Z,5.37
2019-05-05T06:50:47.006Z,9.15
2019-05-05T06:53:15.452Z,4.87
2019-05-05T06:55:44.445Z,6.67
2019-05-05T06:58:13.672Z,7.00
2019-05-05T07:00:44.114Z,3.65
2019-05-05T07:03:13.902Z,5.15
2019-05-05T07:05:43.797Z,4.53
2019-05-05T07:08:13.800Z,8.05
2019-05-05T07:10:44.264Z,4.37
2019-05-05T07:13:14.038Z,4.37
2019-05-05T07:15:43.901Z,4.28
2019-05-05T07:18:14.277Z,3.58
2019-05-05T07:20:44.067Z,3.65
2019-05-05T07:23:14.478Z,3.77
2019-05-05T07:25:45.797Z,4.40
2019-05-05T07:28:14.817Z,8.53
2019-05-05T07:30:44.266Z,4.40
2019-05-05T07:33:14.975Z,6.30
2019-05-05T07:35:58.675Z,4.62
2019-05-05T07:38:18.696Z,6.62
2019-05-05T07:40:47.422Z,6.70
2019-05-05T07:43:15.909Z,7.50
2019-05-05T07:45:44.643Z,7.53
2019-05-05T07:48:13.916Z,7.40
2019-05-05T07:50:44.969Z,9.35
2019-05-05T07:53:17.566Z,9.30
2019-05-05T07:55:43.806Z,5.85
2019-05-05T07:58:13.895Z,6.92
2019-05-05T08:00:43.653Z,7.90
2019-05-05T08:03:14.387Z,8.95
2019-05-05T08:05:44.208Z,8.23
2019-05-05T08:08:13.919Z,10.82
2019-05-05T08:10:43.874Z,12.73
2019-05-05T08:13:14.284Z,11.25
2019-05-05T08:15:56.272Z,7.92
2019-05-05T08:18:24.345Z,6.53
2019-05-05T08:20:54.800Z,15.28
2019-05-05T08:23:31.783Z,13.70
2019-05-05T08:25:57.584Z,15.38
2019-05-05T08:28:31.547Z,16.97
2019-05-05T08:31:03.808Z,17.73
2019-05-05T08:33:33.636Z,18.15
2019-05-05T08:36:04.546Z,16.67
2019-05-05T08:38:34.721Z,15.90
2019-05-05T08:41:05.797Z,14.35
2019-05-05T08:43:35.044Z,12.58
2019-05-05T08:46:04.926Z,15.23
2019-05-05T08:48:34.293Z,19.98
2019-05-05T08:51:04.915Z,17.23
2019-05-05T08:53:42.582Z,16.02
2019-05-05T08:56:04.712Z,11.57
2019-05-05T08:58:34.424Z,15.50
2019-05-05T09:01:04.491Z,19.35
2019-05-05T09:03:34.513Z,21.70
2019-05-05T09:06:04.719Z,12.93
2019-05-05T09:08:34.698Z,20.65
2019-05-05T09:11:04.809Z,16.00
2019-05-05T09:13:34.040Z,16.32
2019-05-05T09:16:03.749Z,21.33
2019-05-05T09:18:33.914Z,18.90
2019-05-05T09:21:04.406Z,21.90
2019-05-05T09:23:35.180Z,23.75
2019-05-05T09:26:13.781Z,23.18
2019-05-05T09:28:44.671Z,25.45
2019-05-05T09:31:14.707Z,19.30
2019-05-05T09:33:45.176Z,17.77
2019-05-05T09:36:14.237Z,21.23
2019-05-05T09:38:45.025Z,19.50
2019-05-05T09:41:16.085Z,17.15
2019-05-05T09:43:46.520Z,19.73
2019-05-05T09:46:15.771Z,21.07
2019-05-05T09:48:44.952Z,27.30
2019-05-05T09:51:13.951Z,16.95
2019-05-05T09:53:44.838Z,19.65
2019-05-05T09:56:14.685Z,21.45
2019-05-05T09:58:44.285Z,18.82
2019-05-05T10:01:15.132Z,20.40
2019-05-05T10:03:44.730Z,20.27
2019-05-05T10:06:14.216Z,24.37
2019-05-05T10:08:44.631Z,19.02
2019-05-05T10:11:16.371Z,15.98
2019-05-05T10:13:44.366Z,16.42
2019-05-05T10:16:14.418Z,15.05
2019-05-05T10:18:44.869Z,14.15
2019-05-05T10:21:17.472Z,17.35
2019-05-05T10:23:46.407Z,13.03
2019-05-05T10:26:15.869Z,15.85
2019-05-05T10:28:46.626Z,17.90
2019-05-05T10:31:15.927Z,16.10
2019-05-05T10:33:49.867Z,16.52
2019-05-05T10:36:20.895Z,20.68
2019-05-05T10:38:56.150Z,21.25
2019-05-05T10:41:25.893Z,17.10
2019-05-05T10:43:56.005Z,17.25
2019-05-05T10:46:26.488Z,21.30
2019-05-05T10:48:59.628Z,20.43
2019-05-05T10:51:29.573Z,19.95
2019-05-05T10:53:58.599Z,22.80
2019-05-05T10:56:28.044Z,18.40
2019-05-05T10:58:57.540Z,20.02
2019-05-05T11:01:27.846Z,21.85
2019-05-05T11:03:56.943Z,18.95
2019-05-05T11:06:25.776Z,19.85
2019-05-05T11:08:54.684Z,18.05
2019-05-05T11:11:23.912Z,17.77
2019-05-05T11:13:54.263Z,20.30
2019-05-05T11:16:23.274Z,18.62
2019-05-05T11:18:54.057Z,15.72
2019-05-05T11:21:23.687Z,18.70
2019-05-05T11:23:53.913Z,16.17
2019-05-05T11:26:24.527Z,16.42
2019-05-05T11:28:53.876Z,17.65
2019-05-05T11:31:23.961Z,17.98
2019-05-05T11:33:54.371Z,13.53
2019-05-05T11:36:24.646Z,17.42
2019-05-05T11:38:54.584Z,17.62
2019-05-05T11:41:24.282Z,17.40
2019-05-05T11:43:53.555Z,12.90
2019-05-05T11:46:22.060Z,15.35
2019-05-05T11:48:50.499Z,16.95
2019-05-05T11:51:19.285Z,18.15
2019-05-05T11:53:47.902Z,12.47
2019-05-05T11:56:19.019Z,16.07
2019-05-05T11:58:48.695Z,16.43
2019-05-05T12:01:17.211Z,18.42
2019-05-05T12:03:45.603Z,12.93
2019-05-05T12:06:14.812Z,15.03
2019-05-05T12:08:45.748Z,14.93
2019-05-05T12:11:15.119Z,16.23
2019-05-05T12:13:44.940Z,14.63
2019-05-05T12:16:15.129Z,12.37
2019-05-05T12:18:44.875Z,15.65
2019-05-05T12:21:14.118Z,18.45
2019-05-05T12:23:44.455Z,11.22
2019-05-05T12:26:14.475Z,14.83
2019-05-05T12:28:45.086Z,15.70
2019-05-05T12:31:18.082Z,15.13
2019-05-05T12:33:46.709Z,15.03
2019-05-05T12:36:19.233Z,14.68
2019-05-05T12:38:48.026Z,12.98
2019-05-05T12:41:20.770Z,16.35
2019-05-05T12:43:49.950Z,13.32
2019-05-05T12:46:25.921Z,12.28
2019-05-05T12:48:56.151Z,16.50
2019-05-05T12:51:25.496Z,17.05
2019-05-05T12:53:54.286Z,23.05
2019-05-05T12:56:23.826Z,20.45
2019-05-05T12:59:05.386Z,19.55
2019-05-05T13:01:44.119Z,17.90
2019-05-05T17:07:37.892Z,12.05
2019-05-05T17:10:07.057Z,10.40
2019-05-05T17:12:35.531Z,8.63
2019-05-05T17:15:23.952Z,7.20
2019-05-05T17:17:56.902Z,11.03
2019-05-05T17:20:44.147Z,14.05
2019-05-05T17:23:15.530Z,17.85
2019-05-05T17:25:48.271Z,9.87
2019-05-05T17:28:17.647Z,7.20
2019-05-05T17:30:48.585Z,8.60
2019-05-05T17:33:17.773Z,11.38
2019-05-05T17:35:46.947Z,9.70
2019-05-05T17:38:17.000Z,13.72
2019-05-05T17:40:47.120Z,8.53
2019-05-05T17:43:27.872Z,5.10
2019-05-05T17:46:07.000Z,11.40
2019-05-05T17:48:55.613Z,8.43
2019-05-05T17:51:34.698Z,14.80
2019-05-05T17:54:05.128Z,11.53
2019-05-05T17:56:33.718Z,8.55
2019-05-05T17:59:03.475Z,9.40
2019-05-05T18:01:33.582Z,9.63
2019-05-05T18:04:03.996Z,11.93
2019-05-05T18:06:34.388Z,10.88
2019-05-05T18:09:21.072Z,14.68
2019-05-05T18:11:56.958Z,10.72
2019-05-05T18:14:27.383Z,10.72
2019-05-05T18:16:56.238Z,11.53
2019-05-05T18:19:24.862Z,12.25
2019-05-05T18:21:54.767Z,10.65
2019-05-05T18:24:24.261Z,12.60
2019-05-05T18:26:55.928Z,9.35
2019-05-05T18:29:24.401Z,13.08
2019-05-05T18:31:53.561Z,7.15
2019-05-05T18:34:23.570Z,11.38
2019-05-05T18:36:54.430Z,8.60
2019-05-05T18:39:24.729Z,12.90
2019-05-05T18:41:54.887Z,10.30
2019-05-05T18:44:27.940Z,14.75
2019-05-05T18:47:18.370Z,16.45
2019-05-05T18:49:46.479Z,13.43
2019-05-05T18:52:14.924Z,13.10
2019-05-05T18:54:43.741Z,11.70
2019-05-05T18:57:12.398Z,14.10
2019-05-05T18:59:40.835Z,18.40
2019-05-05T19:02:14.408Z,13.50
2019-05-05T19:04:53.741Z,15.98
2019-05-05T19:07:33.706Z,13.28
2019-05-05T19:10:04.056Z,15.58
2019-05-05T19:12:34.529Z,13.78
2019-05-05T19:15:04.409Z,17.10
2019-05-05T19:17:35.191Z,16.23
2019-05-05T19:20:09.429Z,13.95
2019-05-05T19:22:38.871Z,18.98
2019-05-05T19:25:17.049Z,15.05
2019-05-05T19:27:46.757Z,12.30
2019-05-05T19:30:17.520Z,13.68
2019-05-05T19:32:46.591Z,15.83
2019-05-05T19:35:15.886Z,13.78
2019-05-05T19:37:46.143Z,13.58
2019-05-05T19:40:15.609Z,17.67
2019-05-05T19:42:46.321Z,13.35
2019-05-05T19:45:16.181Z,11.25
2019-05-05T19:47:45.099Z,13.65
2019-05-05T19:50:18.340Z,18.17
2019-05-05T19:52:46.932Z,16.60
2019-05-05T19:55:16.022Z,18.50
2019-05-05T19:57:44.722Z,13.05
2019-05-05T20:00:14.580Z,11.63
2019-05-05T20:02:43.912Z,13.00
2019-05-05T20:05:14.422Z,12.18
2019-05-05T20:07:43.910Z,15.03
2019-05-05T20:10:14.699Z,16.97
2019-05-05T20:12:44.877Z,10.38
2019-05-05T20:15:15.391Z,9.93
2019-05-05T20:17:44.492Z,14.00
2019-05-05T20:20:13.955Z,13.45
2019-05-05T20:22:44.443Z,9.43
2019-05-05T20:25:14.125Z,17.42
2019-05-05T20:27:43.063Z,13.85
2019-05-05T20:30:14.069Z,14.95
2019-05-05T20:32:46.584Z,9.63
2019-05-05T20:35:25.584Z,10.00
2019-05-05T20:37:56.018Z,11.83
2019-05-05T20:40:26.093Z,15.38
2019-05-05T20:42:54.522Z,7.62
2019-05-05T20:45:24.623Z,9.98
2019-05-05T20:47:53.657Z,11.45
2019-05-05T20:50:24.729Z,12.68
2019-05-05T20:52:53.721Z,12.63
2019-05-05T20:55:22.137Z,11.38
2019-05-05T20:57:50.559Z,7.78
2019-05-05T21:00:19.381Z,11.50
2019-05-05T21:02:47.797Z,10.78
2019-05-05T21:05:16.277Z,11.85
2019-05-05T21:07:44.823Z,14.55
2019-05-05T21:10:14.373Z,13.98
2019-05-05T21:12:45.641Z,10.18
2019-05-05T21:15:14.121Z,9.03
2019-05-05T21:17:44.800Z,7.72
2019-05-05T21:20:14.506Z,10.15
2019-05-05T21:22:44.886Z,10.95
2019-05-05T21:25:24.041Z,10.10
2019-05-05T21:27:52.450Z,10.23
2019-05-05T21:30:20.892Z,13.48
2019-05-05T21:32:49.332Z,11.03
2019-05-05T21:35:18.155Z,12.18
2019-05-05T21:37:46.608Z,11.93
2019-05-05T21:40:16.074Z,12.63
2019-05-05T21:42:44.669Z,11.15
2019-05-05T21:45:13.256Z,11.12
2019-05-05T21:47:41.679Z,10.85
2019-05-05T21:50:14.314Z,16.02
2019-05-05T21:53:00.636Z,13.58
2019-05-05T21:55:31.190Z,16.07
2019-05-05T21:58:17.805Z,20.70
2019-05-05T22:00:51.099Z,16.50
2019-05-05T22:03:29.923Z,11.63
2019-05-05T22:05:58.861Z,11.43
2019-05-05T22:08:27.290Z,14.38
2019-05-05T22:10:55.714Z,14.87
2019-05-05T22:13:24.160Z,11.65
2019-05-05T22:15:54.583Z,16.00
2019-05-05T22:18:22.971Z,16.17
2019-05-05T22:21:11.165Z,14.40
2019-05-05T22:23:39.683Z,14.10
2019-05-05T22:26:08.112Z,9.90
2019-05-05T22:28:36.554Z,10.75
2019-05-05T22:31:05.002Z,13.38
2019-05-05T22:33:34.177Z,14.85
2019-05-05T22:36:04.421Z,17.20
2019-05-05T22:38:34.020Z,8.58
2019-05-05T22:41:02.494Z,15.20
2019-05-05T22:43:31.888Z,12.05
2019-05-05T22:46:00.372Z,13.62
2019-05-05T22:48:28.790Z,15.03
2019-05-05T22:50:57.250Z,12.50
2019-05-05T22:53:26.040Z,15.68
2019-05-05T22:55:54.471Z,13.43
2019-05-05T22:58:24.020Z,15.13
2019-05-05T23:00:54.724Z,15.53
2019-05-05T23:03:33.707Z,18.65
2019-05-05T23:06:09.810Z,15.43
2019-05-05T23:08:38.226Z,15.32
2019-05-05T23:11:06.953Z,15.65
2019-05-05T23:13:35.387Z,12.58
2019-05-05T23:16:11.698Z,15.08
2019-05-05T23:18:40.571Z,17.07
2019-05-05T23:21:15.621Z,14.93
2019-05-05T23:24:01.046Z,10.80
2019-05-05T23:26:31.107Z,22.17
2019-05-05T23:28:59.558Z,20.68
2019-05-05T23:31:28.194Z,16.10
2019-05-05T23:33:56.842Z,20.68
2019-05-05T23:36:25.255Z,16.07
2019-05-05T23:38:54.888Z,14.60
2019-05-05T23:41:23.992Z,13.98
2019-05-05T23:43:54.315Z,15.05
2019-05-05T23:46:24.131Z,21.87
2019-05-05T23:48:53.724Z,19.20
2019-05-05T23:51:24.273Z,14.87
2019-05-05T23:53:54.857Z,14.45
2019-05-05T23:56:24.078Z,14.98
2019-05-05T23:58:54.948Z,15.05
